sensor_id;sensor_type;location;lat;lon;timestamp;P1;durP1;ratioP1;P2;durP2;ratioP2
35126;SDS011;21300;52.006;5.798;2023-06-22T00:02:13;5.72;;;3.05;;
35126;SDS011;21300;52.006;5.798;2023-06-22T00:04:39;4.70;;;3.22;;
35126;SDS011;21300;52.006;5.798;2023-06-22T00:07:05;4.00;;;3.10;;
35126;SDS011;21300;52.006;5.798;2023-06-22T00:09:31;5.95;;;3.00;;
35126;SDS011;21300;52.006;5.798;2023-06-22T00:11:57;4.50;;;3.15;;
35126;SDS011;21300;52.006;5.798;2023-06-22T00:14:23;5.13;;;3.45;;
35126;SDS011;21300;52.006;5.798;2023-06-22T00:16:48;6.15;;;3.65;;
35126;SDS011;21300;52.006;5.798;2023-06-22T00:19:15;4.03;;;3.63;;
35126;SDS011;21300;52.006;5.798;2023-06-22T00:21:41;5.00;;;3.50;;
35126;SDS011;21300;52.006;5.798;2023-06-22T00:24:08;4.15;;;3.20;;
35126;SDS011;21300;52.006;5.798;2023-06-22T00:26:33;5.25;;;3.78;;
35126;SDS011;21300;52.006;5.798;2023-06-22T00:28:59;5.03;;;3.63;;
35126;SDS011;21300;52.006;5.798;2023-06-22T00:31:24;5.82;;;3.83;;
35126;SDS011;21300;52.006;5.798;2023-06-22T00:33:50;3.67;;;3.33;;
35126;SDS011;21300;52.006;5.798;2023-06-22T00:36:16;4.82;;;3.88;;
35126;SDS011;21300;52.006;5.798;2023-06-22T00:38:42;3.42;;;3.13;;
35126;SDS011;21300;52.006;5.798;2023-06-22T00:41:08;4.63;;;3.40;;
35126;SDS011;21300;52.006;5.798;2023-06-22T00:43:34;5.45;;;3.88;;
35126;SDS011;21300;52.006;5.798;2023-06-22T00:45:59;4.03;;;3.50;;
35126;SDS011;21300;52.006;5.798;2023-06-22T00:48:25;6.45;;;3.83;;
35126;SDS011;21300;52.006;5.798;2023-06-22T00:50:51;4.13;;;3.53;;
35126;SDS011;21300;52.006;5.798;2023-06-22T00:53:18;5.70;;;3.60;;
35126;SDS011;21300;52.006;5.798;2023-06-22T00:55:44;5.03;;;3.70;;
35126;SDS011;21300;52.006;5.798;2023-06-22T00:58:12;4.93;;;3.30;;
35126;SDS011;21300;52.006;5.798;2023-06-22T01:00:41;6.93;;;3.70;;
35126;SDS011;21300;52.006;5.798;2023-06-22T01:03:07;5.28;;;4.10;;
35126;SDS011;21300;52.006;5.798;2023-06-22T01:05:33;4.10;;;3.50;;
35126;SDS011;21300;52.006;5.798;2023-06-22T01:10:48;4.68;;;3.78;;
35126;SDS011;21300;52.006;5.798;2023-06-22T01:16:29;3.67;;;3.20;;
35126;SDS011;21300;52.006;5.798;2023-06-22T01:19:17;5.70;;;3.47;;
35126;SDS011;21300;52.006;5.798;2023-06-22T01:22:06;4.63;;;3.65;;
35126;SDS011;21300;52.006;5.798;2023-06-22T01:30:10;4.70;;;3.75;;
35126;SDS011;21300;52.006;5.798;2023-06-22T01:32:40;4.90;;;4.25;;
35126;SDS011;21300;52.006;5.798;2023-06-22T01:35:06;6.90;;;4.53;;
35126;SDS011;21300;52.006;5.798;2023-06-22T01:37:35;5.45;;;4.00;;
35126;SDS011;21300;52.006;5.798;2023-06-22T01:40:02;4.63;;;3.65;;
35126;SDS011;21300;52.006;5.798;2023-06-22T01:42:31;4.88;;;3.60;;
35126;SDS011;21300;52.006;5.798;2023-06-22T01:44:57;8.20;;;3.97;;
35126;SDS011;21300;52.006;5.798;2023-06-22T01:47:24;6.93;;;4.22;;
35126;SDS011;21300;52.006;5.798;2023-06-22T01:49:50;5.40;;;4.90;;
35126;SDS011;21300;52.006;5.798;2023-06-22T01:52:17;5.68;;;4.43;;
35126;SDS011;21300;52.006;5.798;2023-06-22T01:54:45;5.38;;;3.95;;
35126;SDS011;21300;52.006;5.798;2023-06-22T01:57:11;5.03;;;4.00;;
35126;SDS011;21300;52.006;5.798;2023-06-22T02:02:13;8.07;;;4.40;;
35126;SDS011;21300;52.006;5.798;2023-06-22T02:04:44;6.32;;;4.28;;
35126;SDS011;21300;52.006;5.798;2023-06-22T02:07:21;5.55;;;4.10;;
35126;SDS011;21300;52.006;5.798;2023-06-22T02:09:49;6.90;;;5.13;;
35126;SDS011;21300;52.006;5.798;2023-06-22T02:12:18;7.63;;;4.85;;
35126;SDS011;21300;52.006;5.798;2023-06-22T02:14:48;5.45;;;4.60;;
35126;SDS011;21300;52.006;5.798;2023-06-22T02:17:14;7.35;;;4.95;;
35126;SDS011;21300;52.006;5.798;2023-06-22T02:19:41;7.13;;;4.57;;
35126;SDS011;21300;52.006;5.798;2023-06-22T02:22:07;6.07;;;4.90;;
35126;SDS011;21300;52.006;5.798;2023-06-22T02:24:32;5.45;;;4.50;;
35126;SDS011;21300;52.006;5.798;2023-06-22T02:26:58;5.70;;;4.45;;
35126;SDS011;21300;52.006;5.798;2023-06-22T02:29:25;4.70;;;4.30;;
35126;SDS011;21300;52.006;5.798;2023-06-22T02:31:52;6.60;;;4.80;;
35126;SDS011;21300;52.006;5.798;2023-06-22T02:34:18;6.75;;;4.85;;
35126;SDS011;21300;52.006;5.798;2023-06-22T02:36:47;6.78;;;4.93;;
35126;SDS011;21300;52.006;5.798;2023-06-22T02:39:18;7.88;;;4.93;;
35126;SDS011;21300;52.006;5.798;2023-06-22T02:41:48;6.45;;;4.43;;
35126;SDS011;21300;52.006;5.798;2023-06-22T02:44:15;6.20;;;5.13;;
35126;SDS011;21300;52.006;5.798;2023-06-22T02:46:41;6.25;;;4.80;;
35126;SDS011;21300;52.006;5.798;2023-06-22T02:49:06;7.40;;;4.10;;
35126;SDS011;21300;52.006;5.798;2023-06-22T02:51:33;6.20;;;4.55;;
35126;SDS011;21300;52.006;5.798;2023-06-22T02:53:59;6.25;;;4.40;;
35126;SDS011;21300;52.006;5.798;2023-06-22T02:56:25;6.28;;;4.40;;
35126;SDS011;21300;52.006;5.798;2023-06-22T02:58:52;5.28;;;4.28;;
35126;SDS011;21300;52.006;5.798;2023-06-22T03:01:17;4.70;;;4.13;;
35126;SDS011;21300;52.006;5.798;2023-06-22T03:03:49;5.00;;;4.18;;
35126;SDS011;21300;52.006;5.798;2023-06-22T03:06:15;5.03;;;4.07;;
35126;SDS011;21300;52.006;5.798;2023-06-22T03:08:41;4.50;;;4.10;;
35126;SDS011;21300;52.006;5.798;2023-06-22T03:11:06;5.53;;;4.00;;
35126;SDS011;21300;52.006;5.798;2023-06-22T03:13:33;5.85;;;4.03;;
35126;SDS011;21300;52.006;5.798;2023-06-22T03:15:58;6.13;;;3.90;;
35126;SDS011;21300;52.006;5.798;2023-06-22T03:18:24;3.92;;;3.17;;
35126;SDS011;21300;52.006;5.798;2023-06-22T03:20:50;6.57;;;4.18;;
35126;SDS011;21300;52.006;5.798;2023-06-22T03:23:15;6.60;;;4.15;;
35126;SDS011;21300;52.006;5.798;2023-06-22T03:25:41;6.13;;;4.35;;
35126;SDS011;21300;52.006;5.798;2023-06-22T03:28:09;5.18;;;3.90;;
35126;SDS011;21300;52.006;5.798;2023-06-22T03:30:35;4.65;;;4.03;;
35126;SDS011;21300;52.006;5.798;2023-06-22T03:33:01;4.45;;;3.83;;
35126;SDS011;21300;52.006;5.798;2023-06-22T03:35:26;5.70;;;3.83;;
35126;SDS011;21300;52.006;5.798;2023-06-22T03:37:52;4.65;;;3.92;;
35126;SDS011;21300;52.006;5.798;2023-06-22T03:40:17;4.97;;;3.72;;
35126;SDS011;21300;52.006;5.798;2023-06-22T03:42:43;5.10;;;4.03;;
35126;SDS011;21300;52.006;5.798;2023-06-22T03:45:09;5.65;;;4.13;;
35126;SDS011;21300;52.006;5.798;2023-06-22T03:47:35;7.20;;;4.60;;
35126;SDS011;21300;52.006;5.798;2023-06-22T03:50:00;5.50;;;4.90;;
35126;SDS011;21300;52.006;5.798;2023-06-22T03:52:28;5.53;;;4.07;;
35126;SDS011;21300;52.006;5.798;2023-06-22T03:54:54;6.60;;;4.93;;
35126;SDS011;21300;52.006;5.798;2023-06-22T03:57:20;5.03;;;4.53;;
35126;SDS011;21300;52.006;5.798;2023-06-22T03:59:45;8.13;;;5.80;;
35126;SDS011;21300;52.006;5.798;2023-06-22T04:02:11;6.18;;;5.55;;
35126;SDS011;21300;52.006;5.798;2023-06-22T04:04:37;10.13;;;6.18;;
35126;SDS011;21300;52.006;5.798;2023-06-22T04:07:04;10.38;;;5.50;;
35126;SDS011;21300;52.006;5.798;2023-06-22T04:09:30;7.65;;;5.78;;
35126;SDS011;21300;52.006;5.798;2023-06-22T04:11:55;7.32;;;5.38;;
35126;SDS011;21300;52.006;5.798;2023-06-22T04:14:21;7.15;;;5.38;;
35126;SDS011;21300;52.006;5.798;2023-06-22T04:16:47;8.60;;;5.88;;
35126;SDS011;21300;52.006;5.798;2023-06-22T04:19:12;8.15;;;5.65;;
35126;SDS011;21300;52.006;5.798;2023-06-22T04:21:42;8.82;;;6.32;;
35126;SDS011;21300;52.006;5.798;2023-06-22T04:24:08;8.40;;;5.82;;
35126;SDS011;21300;52.006;5.798;2023-06-22T04:26:33;8.55;;;6.15;;
35126;SDS011;21300;52.006;5.798;2023-06-22T04:29:01;7.28;;;5.85;;
35126;SDS011;21300;52.006;5.798;2023-06-22T04:31:34;9.88;;;6.43;;
35126;SDS011;21300;52.006;5.798;2023-06-22T04:34:02;7.80;;;6.60;;
35126;SDS011;21300;52.006;5.798;2023-06-22T04:36:32;9.32;;;6.72;;
35126;SDS011;21300;52.006;5.798;2023-06-22T04:39:08;7.55;;;6.47;;
35126;SDS011;21300;52.006;5.798;2023-06-22T04:41:38;9.57;;;7.40;;
35126;SDS011;21300;52.006;5.798;2023-06-22T04:44:17;10.40;;;6.95;;
35126;SDS011;21300;52.006;5.798;2023-06-22T04:46:49;9.20;;;8.20;;
35126;SDS011;21300;52.006;5.798;2023-06-22T04:49:18;10.25;;;7.72;;
35126;SDS011;21300;52.006;5.798;2023-06-22T04:51:45;9.35;;;7.70;;
35126;SDS011;21300;52.006;5.798;2023-06-22T04:54:10;10.52;;;8.02;;
35126;SDS011;21300;52.006;5.798;2023-06-22T04:56:36;12.45;;;8.50;;
35126;SDS011;21300;52.006;5.798;2023-06-22T04:59:02;11.88;;;8.48;;
35126;SDS011;21300;52.006;5.798;2023-06-22T05:01:28;12.18;;;9.35;;
35126;SDS011;21300;52.006;5.798;2023-06-22T05:03:56;11.10;;;9.90;;
35126;SDS011;21300;52.006;5.798;2023-06-22T05:06:25;12.25;;;10.95;;
35126;SDS011;21300;52.006;5.798;2023-06-22T05:08:54;13.43;;;10.00;;
35126;SDS011;21300;52.006;5.798;2023-06-22T05:11:29;14.60;;;11.00;;
35126;SDS011;21300;52.006;5.798;2023-06-22T05:13:54;14.95;;;11.38;;
35126;SDS011;21300;52.006;5.798;2023-06-22T05:16:20;15.15;;;11.45;;
35126;SDS011;21300;52.006;5.798;2023-06-22T05:18:49;13.10;;;10.77;;
35126;SDS011;21300;52.006;5.798;2023-06-22T05:21:22;16.70;;;14.13;;
35126;SDS011;21300;52.006;5.798;2023-06-22T05:23:49;19.00;;;13.55;;
35126;SDS011;21300;52.006;5.798;2023-06-22T05:26:15;14.60;;;12.65;;
35126;SDS011;21300;52.006;5.798;2023-06-22T05:28:41;17.58;;;13.88;;
35126;SDS011;21300;52.006;5.798;2023-06-22T05:31:11;15.90;;;14.10;;
35126;SDS011;21300;52.006;5.798;2023-06-22T05:33:38;17.33;;;15.10;;
35126;SDS011;21300;52.006;5.798;2023-06-22T05:36:03;23.17;;;15.40;;
35126;SDS011;21300;52.006;5.798;2023-06-22T05:38:30;23.52;;;15.77;;
35126;SDS011;21300;52.006;5.798;2023-06-22T05:40:56;22.67;;;17.65;;
35126;SDS011;21300;52.006;5.798;2023-06-22T05:43:21;20.73;;;17.10;;
35126;SDS011;21300;52.006;5.798;2023-06-22T05:45:47;20.05;;;17.77;;
35126;SDS011;21300;52.006;5.798;2023-06-22T05:48:13;22.15;;;17.85;;
35126;SDS011;21300;52.006;5.798;2023-06-22T05:50:38;22.35;;;19.30;;
35126;SDS011;21300;52.006;5.798;2023-06-22T05:53:04;25.58;;;19.10;;
35126;SDS011;21300;52.006;5.798;2023-06-22T05:55:31;22.73;;;18.80;;
35126;SDS011;21300;52.006;5.798;2023-06-22T05:57:57;22.98;;;18.50;;
35126;SDS011;21300;52.006;5.798;2023-06-22T06:00:23;23.90;;;19.05;;
35126;SDS011;21300;52.006;5.798;2023-06-22T06:02:49;23.15;;;18.38;;
35126;SDS011;21300;52.006;5.798;2023-06-22T06:05:15;21.85;;;18.15;;
35126;SDS011;21300;52.006;5.798;2023-06-22T06:07:41;23.30;;;17.75;;
35126;SDS011;21300;52.006;5.798;2023-06-22T06:10:07;24.70;;;18.25;;
35126;SDS011;21300;52.006;5.798;2023-06-22T06:12:34;24.75;;;19.67;;
35126;SDS011;21300;52.006;5.798;2023-06-22T06:14:59;21.70;;;16.98;;
35126;SDS011;21300;52.006;5.798;2023-06-22T06:17:25;24.40;;;18.75;;
35126;SDS011;21300;52.006;5.798;2023-06-22T06:19:51;20.85;;;18.35;;
35126;SDS011;21300;52.006;5.798;2023-06-22T06:22:16;26.75;;;18.02;;
35126;SDS011;21300;52.006;5.798;2023-06-22T06:24:43;21.63;;;17.17;;
35126;SDS011;21300;52.006;5.798;2023-06-22T06:27:09;21.00;;;15.85;;
35126;SDS011;21300;52.006;5.798;2023-06-22T06:29:35;19.20;;;16.73;;
35126;SDS011;21300;52.006;5.798;2023-06-22T06:32:00;21.80;;;17.08;;
35126;SDS011;21300;52.006;5.798;2023-06-22T06:34:26;17.92;;;15.00;;
35126;SDS011;21300;52.006;5.798;2023-06-22T06:36:51;21.27;;;16.40;;
35126;SDS011;21300;52.006;5.798;2023-06-22T06:39:17;19.98;;;16.10;;
35126;SDS011;21300;52.006;5.798;2023-06-22T06:41:42;20.33;;;15.90;;
35126;SDS011;21300;52.006;5.798;2023-06-22T06:44:08;17.92;;;14.80;;
35126;SDS011;21300;52.006;5.798;2023-06-22T06:46:33;17.45;;;13.25;;
35126;SDS011;21300;52.006;5.798;2023-06-22T06:48:59;18.38;;;13.98;;
35126;SDS011;21300;52.006;5.798;2023-06-22T06:51:24;18.75;;;14.43;;
35126;SDS011;21300;52.006;5.798;2023-06-22T06:53:50;17.42;;;14.07;;
35126;SDS011;21300;52.006;5.798;2023-06-22T06:56:16;16.23;;;13.48;;
35126;SDS011;21300;52.006;5.798;2023-06-22T06:58:42;17.20;;;12.43;;
35126;SDS011;21300;52.006;5.798;2023-06-22T07:01:08;15.38;;;13.40;;
35126;SDS011;21300;52.006;5.798;2023-06-22T07:03:33;17.50;;;12.70;;
35126;SDS011;21300;52.006;5.798;2023-06-22T07:05:59;16.35;;;12.18;;
35126;SDS011;21300;52.006;5.798;2023-06-22T07:08:25;16.50;;;12.25;;
35126;SDS011;21300;52.006;5.798;2023-06-22T07:10:51;16.60;;;12.43;;
35126;SDS011;21300;52.006;5.798;2023-06-22T07:13:17;12.48;;;10.63;;
35126;SDS011;21300;52.006;5.798;2023-06-22T07:15:43;12.85;;;11.10;;
35126;SDS011;21300;52.006;5.798;2023-06-22T07:18:09;13.38;;;11.43;;
35126;SDS011;21300;52.006;5.798;2023-06-22T07:20:34;13.02;;;10.23;;
35126;SDS011;21300;52.006;5.798;2023-06-22T07:23:00;13.63;;;9.88;;
35126;SDS011;21300;52.006;5.798;2023-06-22T07:25:26;12.18;;;9.48;;
35126;SDS011;21300;52.006;5.798;2023-06-22T07:28:01;11.95;;;10.32;;
35126;SDS011;21300;52.006;5.798;2023-06-22T07:30:29;15.40;;;10.77;;
35126;SDS011;21300;52.006;5.798;2023-06-22T07:32:56;17.92;;;11.80;;
35126;SDS011;21300;52.006;5.798;2023-06-22T07:35:23;16.58;;;11.95;;
35126;SDS011;21300;52.006;5.798;2023-06-22T07:37:49;14.70;;;9.90;;
35126;SDS011;21300;52.006;5.798;2023-06-22T07:40:14;11.60;;;10.23;;
35126;SDS011;21300;52.006;5.798;2023-06-22T07:42:40;13.80;;;10.70;;
35126;SDS011;21300;52.006;5.798;2023-06-22T07:45:06;15.10;;;11.02;;
35126;SDS011;21300;52.006;5.798;2023-06-22T07:47:33;14.88;;;11.73;;
35126;SDS011;21300;52.006;5.798;2023-06-22T07:50:00;16.02;;;11.00;;
35126;SDS011;21300;52.006;5.798;2023-06-22T07:52:26;12.13;;;9.98;;
35126;SDS011;21300;52.006;5.798;2023-06-22T07:54:53;13.07;;;10.25;;
35126;SDS011;21300;52.006;5.798;2023-06-22T07:57:19;12.93;;;10.00;;
35126;SDS011;21300;52.006;5.798;2023-06-22T07:59:45;11.57;;;9.02;;
35126;SDS011;21300;52.006;5.798;2023-06-22T08:02:10;13.43;;;9.80;;
35126;SDS011;21300;52.006;5.798;2023-06-22T08:04:36;10.38;;;8.35;;
35126;SDS011;21300;52.006;5.798;2023-06-22T08:07:02;11.90;;;9.30;;
35126;SDS011;21300;52.006;5.798;2023-06-22T08:09:29;13.57;;;9.02;;
35126;SDS011;21300;52.006;5.798;2023-06-22T08:11:56;13.20;;;9.00;;
35126;SDS011;21300;52.006;5.798;2023-06-22T08:14:23;11.38;;;9.13;;
35126;SDS011;21300;52.006;5.798;2023-06-22T08:16:50;12.75;;;9.23;;
35126;SDS011;21300;52.006;5.798;2023-06-22T08:19:16;11.07;;;8.63;;
35126;SDS011;21300;52.006;5.798;2023-06-22T08:21:42;11.85;;;8.35;;
35126;SDS011;21300;52.006;5.798;2023-06-22T08:24:07;11.07;;;8.10;;
35126;SDS011;21300;52.006;5.798;2023-06-22T08:26:33;8.52;;;7.28;;
35126;SDS011;21300;52.006;5.798;2023-06-22T08:29:02;10.45;;;8.13;;
35126;SDS011;21300;52.006;5.798;2023-06-22T08:31:28;10.05;;;7.75;;
35126;SDS011;21300;52.006;5.798;2023-06-22T08:33:53;8.55;;;6.90;;
35126;SDS011;21300;52.006;5.798;2023-06-22T08:36:19;10.98;;;7.40;;
35126;SDS011;21300;52.006;5.798;2023-06-22T08:38:45;9.57;;;7.30;;
35126;SDS011;21300;52.006;5.798;2023-06-22T08:41:15;9.13;;;7.80;;
35126;SDS011;21300;52.006;5.798;2023-06-22T08:43:41;10.95;;;7.50;;
35126;SDS011;21300;52.006;5.798;2023-06-22T08:46:08;9.10;;;7.28;;
35126;SDS011;21300;52.006;5.798;2023-06-22T08:48:35;10.57;;;5.93;;
35126;SDS011;21300;52.006;5.798;2023-06-22T08:51:01;9.27;;;6.82;;
35126;SDS011;21300;52.006;5.798;2023-06-22T08:53:27;9.70;;;6.43;;
35126;SDS011;21300;52.006;5.798;2023-06-22T08:55:53;9.63;;;6.30;;
35126;SDS011;21300;52.006;5.798;2023-06-22T08:58:19;7.05;;;6.10;;
35126;SDS011;21300;52.006;5.798;2023-06-22T09:00:47;7.85;;;5.30;;
35126;SDS011;21300;52.006;5.798;2023-06-22T09:03:13;8.15;;;5.85;;
35126;SDS011;21300;52.006;5.798;2023-06-22T09:05:39;9.10;;;5.22;;
35126;SDS011;21300;52.006;5.798;2023-06-22T09:08:04;7.05;;;4.50;;
35126;SDS011;21300;52.006;5.798;2023-06-22T09:10:30;6.30;;;4.45;;
35126;SDS011;21300;52.006;5.798;2023-06-22T09:12:56;6.82;;;4.53;;
35126;SDS011;21300;52.006;5.798;2023-06-22T09:15:22;7.75;;;5.38;;
35126;SDS011;21300;52.006;5.798;2023-06-22T09:17:48;10.02;;;5.38;;
35126;SDS011;21300;52.006;5.798;2023-06-22T09:20:13;7.55;;;5.00;;
35126;SDS011;21300;52.006;5.798;2023-06-22T09:22:39;6.57;;;4.80;;
35126;SDS011;21300;52.006;5.798;2023-06-22T09:25:05;8.93;;;5.80;;
35126;SDS011;21300;52.006;5.798;2023-06-22T09:27:31;7.32;;;5.00;;
35126;SDS011;21300;52.006;5.798;2023-06-22T09:29:57;8.65;;;6.10;;
35126;SDS011;21300;52.006;5.798;2023-06-22T09:32:23;7.38;;;4.93;;
35126;SDS011;21300;52.006;5.798;2023-06-22T09:34:50;8.40;;;5.65;;
35126;SDS011;21300;52.006;5.798;2023-06-22T09:37:16;7.57;;;5.75;;
35126;SDS011;21300;52.006;5.798;2023-06-22T09:39:41;7.82;;;5.70;;
35126;SDS011;21300;52.006;5.798;2023-06-22T09:42:07;7.90;;;5.32;;
35126;SDS011;21300;52.006;5.798;2023-06-22T09:44:33;8.27;;;6.07;;
35126;SDS011;21300;52.006;5.798;2023-06-22T09:46:58;8.75;;;5.68;;
35126;SDS011;21300;52.006;5.798;2023-06-22T09:49:24;8.10;;;5.82;;
35126;SDS011;21300;52.006;5.798;2023-06-22T09:51:50;7.20;;;5.82;;
35126;SDS011;21300;52.006;5.798;2023-06-22T09:54:17;6.90;;;5.30;;
35126;SDS011;21300;52.006;5.798;2023-06-22T09:56:42;8.43;;;5.28;;
35126;SDS011;21300;52.006;5.798;2023-06-22T09:59:08;8.02;;;5.45;;
35126;SDS011;21300;52.006;5.798;2023-06-22T10:01:34;6.00;;;5.25;;
35126;SDS011;21300;52.006;5.798;2023-06-22T10:03:59;7.28;;;6.07;;
35126;SDS011;21300;52.006;5.798;2023-06-22T10:06:25;7.90;;;6.78;;
35126;SDS011;21300;52.006;5.798;2023-06-22T10:08:51;6.82;;;5.35;;
35126;SDS011;21300;52.006;5.798;2023-06-22T10:11:17;9.32;;;6.40;;
35126;SDS011;21300;52.006;5.798;2023-06-22T10:13:42;6.95;;;5.43;;
35126;SDS011;21300;52.006;5.798;2023-06-22T10:16:08;7.68;;;6.07;;
35126;SDS011;21300;52.006;5.798;2023-06-22T10:18:33;6.60;;;5.20;;
35126;SDS011;21300;52.006;5.798;2023-06-22T10:20:59;6.70;;;5.43;;
35126;SDS011;21300;52.006;5.798;2023-06-22T10:23:25;6.70;;;5.20;;
35126;SDS011;21300;52.006;5.798;2023-06-22T10:25:50;7.25;;;5.40;;
35126;SDS011;21300;52.006;5.798;2023-06-22T10:28:16;9.57;;;5.00;;
35126;SDS011;21300;52.006;5.798;2023-06-22T10:30:42;7.32;;;5.22;;
35126;SDS011;21300;52.006;5.798;2023-06-22T10:33:08;7.63;;;5.28;;
35126;SDS011;21300;52.006;5.798;2023-06-22T10:35:35;8.40;;;5.30;;
35126;SDS011;21300;52.006;5.798;2023-06-22T10:38:02;8.25;;;5.20;;
35126;SDS011;21300;52.006;5.798;2023-06-22T10:40:28;7.47;;;5.65;;
35126;SDS011;21300;52.006;5.798;2023-06-22T10:42:54;6.13;;;5.50;;
35126;SDS011;21300;52.006;5.798;2023-06-22T10:45:19;7.63;;;5.30;;
35126;SDS011;21300;52.006;5.798;2023-06-22T10:47:45;6.60;;;5.13;;
35126;SDS011;21300;52.006;5.798;2023-06-22T10:50:11;8.20;;;5.13;;
35126;SDS011;21300;52.006;5.798;2023-06-22T10:52:36;7.45;;;5.82;;
35126;SDS011;21300;52.006;5.798;2023-06-22T10:55:02;8.70;;;6.43;;
35126;SDS011;21300;52.006;5.798;2023-06-22T10:57:28;7.05;;;5.38;;
35126;SDS011;21300;52.006;5.798;2023-06-22T10:59:54;6.18;;;4.50;;
35126;SDS011;21300;52.006;5.798;2023-06-22T11:02:20;6.88;;;5.43;;
35126;SDS011;21300;52.006;5.798;2023-06-22T11:04:45;7.93;;;4.97;;
35126;SDS011;21300;52.006;5.798;2023-06-22T11:07:12;7.88;;;5.88;;
35126;SDS011;21300;52.006;5.798;2023-06-22T11:09:38;7.03;;;5.40;;
35126;SDS011;21300;52.006;5.798;2023-06-22T11:12:04;7.45;;;6.07;;
35126;SDS011;21300;52.006;5.798;2023-06-22T11:14:31;6.75;;;6.05;;
35126;SDS011;21300;52.006;5.798;2023-06-22T11:16:58;8.63;;;5.82;;
35126;SDS011;21300;52.006;5.798;2023-06-22T11:19:24;9.18;;;6.68;;
35126;SDS011;21300;52.006;5.798;2023-06-22T11:21:49;6.75;;;6.05;;
35126;SDS011;21300;52.006;5.798;2023-06-22T11:24:15;7.85;;;6.20;;
35126;SDS011;21300;52.006;5.798;2023-06-22T11:26:41;11.20;;;6.65;;
35126;SDS011;21300;52.006;5.798;2023-06-22T11:29:07;8.43;;;7.20;;
35126;SDS011;21300;52.006;5.798;2023-06-22T11:31:33;6.90;;;6.07;;
35126;SDS011;21300;52.006;5.798;2023-06-22T11:33:59;9.35;;;6.35;;
35126;SDS011;21300;52.006;5.798;2023-06-22T11:36:25;8.23;;;5.75;;
35126;SDS011;21300;52.006;5.798;2023-06-22T11:38:51;8.32;;;6.00;;
35126;SDS011;21300;52.006;5.798;2023-06-22T11:41:17;6.32;;;5.60;;
35126;SDS011;21300;52.006;5.798;2023-06-22T11:43:43;5.97;;;4.68;;
35126;SDS011;21300;52.006;5.798;2023-06-22T11:48:54;6.90;;;5.27;;
35126;SDS011;21300;52.006;5.798;2023-06-22T11:51:19;6.88;;;5.15;;
35126;SDS011;21300;52.006;5.798;2023-06-22T11:53:45;5.53;;;4.90;;
35126;SDS011;21300;52.006;5.798;2023-06-22T11:56:10;7.55;;;5.82;;
35126;SDS011;21300;52.006;5.798;2023-06-22T11:58:36;11.10;;;6.30;;
35126;SDS011;21300;52.006;5.798;2023-06-22T12:01:01;7.72;;;6.30;;
35126;SDS011;21300;52.006;5.798;2023-06-22T12:03:27;8.48;;;6.60;;
35126;SDS011;21300;52.006;5.798;2023-06-22T12:05:54;8.70;;;6.70;;
35126;SDS011;21300;52.006;5.798;2023-06-22T12:08:19;10.13;;;6.72;;
35126;SDS011;21300;52.006;5.798;2023-06-22T12:10:46;10.30;;;7.15;;
35126;SDS011;21300;52.006;5.798;2023-06-22T12:13:11;8.95;;;6.35;;
35126;SDS011;21300;52.006;5.798;2023-06-22T12:15:37;10.05;;;7.22;;
35126;SDS011;21300;52.006;5.798;2023-06-22T12:18:03;8.98;;;7.22;;
35126;SDS011;21300;52.006;5.798;2023-06-22T12:20:29;9.43;;;7.30;;
35126;SDS011;21300;52.006;5.798;2023-06-22T12:22:54;10.48;;;7.90;;
35126;SDS011;21300;52.006;5.798;2023-06-22T12:25:21;9.18;;;7.65;;
35126;SDS011;21300;52.006;5.798;2023-06-22T12:27:47;8.70;;;7.78;;
35126;SDS011;21300;52.006;5.798;2023-06-22T12:30:15;10.68;;;8.23;;
35126;SDS011;21300;52.006;5.798;2023-06-22T12:32:41;9.43;;;8.05;;
35126;SDS011;21300;52.006;5.798;2023-06-22T12:35:07;10.93;;;8.85;;
35126;SDS011;21300;52.006;5.798;2023-06-22T12:37:40;13.20;;;8.90;;
35126;SDS011;21300;52.006;5.798;2023-06-22T12:40:07;9.20;;;8.30;;
35126;SDS011;21300;52.006;5.798;2023-06-22T12:42:33;11.93;;;9.40;;
35126;SDS011;21300;52.006;5.798;2023-06-22T12:44:59;11.25;;;9.23;;
35126;SDS011;21300;52.006;5.798;2023-06-22T12:47:24;14.13;;;9.18;;
35126;SDS011;21300;52.006;5.798;2023-06-22T12:49:50;10.82;;;9.07;;
35126;SDS011;21300;52.006;5.798;2023-06-22T12:52:15;15.85;;;9.30;;
35126;SDS011;21300;52.006;5.798;2023-06-22T12:54:41;15.68;;;10.27;;
35126;SDS011;21300;52.006;5.798;2023-06-22T12:57:07;10.48;;;9.35;;
35126;SDS011;21300;52.006;5.798;2023-06-22T12:59:32;11.73;;;9.80;;
35126;SDS011;21300;52.006;5.798;2023-06-22T13:01:58;16.40;;;10.85;;
35126;SDS011;21300;52.006;5.798;2023-06-22T13:04:23;13.18;;;10.27;;
35126;SDS011;21300;52.006;5.798;2023-06-22T13:06:49;12.68;;;10.57;;
35126;SDS011;21300;52.006;5.798;2023-06-22T13:09:15;15.70;;;11.93;;
35126;SDS011;21300;52.006;5.798;2023-06-22T13:11:42;16.95;;;13.10;;
35126;SDS011;21300;52.006;5.798;2023-06-22T13:14:08;13.43;;;11.82;;
35126;SDS011;21300;52.006;5.798;2023-06-22T13:16:34;16.30;;;13.00;;
35126;SDS011;21300;52.006;5.798;2023-06-22T13:18:59;13.48;;;11.88;;
35126;SDS011;21300;52.006;5.798;2023-06-22T13:21:25;17.83;;;13.32;;
35126;SDS011;21300;52.006;5.798;2023-06-22T13:23:51;15.32;;;13.60;;
35126;SDS011;21300;52.006;5.798;2023-06-22T13:26:16;17.23;;;11.93;;
35126;SDS011;21300;52.006;5.798;2023-06-22T13:28:42;14.05;;;12.25;;
35126;SDS011;21300;52.006;5.798;2023-06-22T13:31:07;15.57;;;12.23;;
35126;SDS011;21300;52.006;5.798;2023-06-22T13:33:33;15.75;;;13.20;;
35126;SDS011;21300;52.006;5.798;2023-06-22T13:35:59;13.95;;;12.60;;
35126;SDS011;21300;52.006;5.798;2023-06-22T13:38:24;17.73;;;14.45;;
35126;SDS011;21300;52.006;5.798;2023-06-22T13:40:50;16.27;;;13.30;;
35126;SDS011;21300;52.006;5.798;2023-06-22T13:43:16;15.80;;;13.05;;
35126;SDS011;21300;52.006;5.798;2023-06-22T13:46:00;15.52;;;13.90;;
35126;SDS011;21300;52.006;5.798;2023-06-22T13:48:26;14.48;;;13.07;;
35126;SDS011;21300;52.006;5.798;2023-06-22T13:50:53;19.83;;;15.07;;
35126;SDS011;21300;52.006;5.798;2023-06-22T13:53:19;17.73;;;15.32;;
35126;SDS011;21300;52.006;5.798;2023-06-22T13:55:45;17.42;;;14.98;;
35126;SDS011;21300;52.006;5.798;2023-06-22T13:58:12;15.57;;;13.98;;
35126;SDS011;21300;52.006;5.798;2023-06-22T14:00:38;19.05;;;13.73;;
35126;SDS011;21300;52.006;5.798;2023-06-22T14:03:03;18.45;;;15.02;;
35126;SDS011;21300;52.006;5.798;2023-06-22T14:05:29;14.68;;;13.15;;
35126;SDS011;21300;52.006;5.798;2023-06-22T14:07:54;21.77;;;15.15;;
35126;SDS011;21300;52.006;5.798;2023-06-22T14:10:20;16.63;;;14.00;;
35126;SDS011;21300;52.006;5.798;2023-06-22T14:12:45;15.82;;;14.07;;
35126;SDS011;21300;52.006;5.798;2023-06-22T14:15:11;17.30;;;14.05;;
35126;SDS011;21300;52.006;5.798;2023-06-22T14:17:37;15.18;;;13.52;;
35126;SDS011;21300;52.006;5.798;2023-06-22T14:20:02;16.60;;;13.45;;
35126;SDS011;21300;52.006;5.798;2023-06-22T14:22:30;17.67;;;13.70;;
35126;SDS011;21300;52.006;5.798;2023-06-22T14:24:55;17.08;;;12.40;;
35126;SDS011;21300;52.006;5.798;2023-06-22T14:27:22;14.00;;;11.98;;
35126;SDS011;21300;52.006;5.798;2023-06-22T14:29:48;18.50;;;13.77;;
35126;SDS011;21300;52.006;5.798;2023-06-22T14:32:14;15.90;;;12.95;;
35126;SDS011;21300;52.006;5.798;2023-06-22T14:34:39;13.30;;;12.00;;
35126;SDS011;21300;52.006;5.798;2023-06-22T14:37:06;13.90;;;12.50;;
35126;SDS011;21300;52.006;5.798;2023-06-22T14:39:32;15.77;;;12.55;;
35126;SDS011;21300;52.006;5.798;2023-06-22T14:41:58;16.20;;;12.98;;
35126;SDS011;21300;52.006;5.798;2023-06-22T14:44:25;15.68;;;13.85;;
35126;SDS011;21300;52.006;5.798;2023-06-22T14:46:51;13.38;;;11.80;;
35126;SDS011;21300;52.006;5.798;2023-06-22T14:49:17;16.60;;;12.75;;
35126;SDS011;21300;52.006;5.798;2023-06-22T14:51:42;14.38;;;12.93;;